Airfield :
LOGIN :

Register | Disclaimer

   EN    FR    IT 

 










Legend :    VFR   Marginal VFR   IFR   Intensive IFR   Very Intensive IFR
Visi :
Ceiling :
>= 8 km
>= 3000ft
5 to 8 km
1000 to 3000 ft
1500m to 5 km
500 to 1000 ft
800 to 1500m
200 to 500 ft
< 800m
< 200 ft
Symbols :   Thunderstorms  Fog  Heavy snow  Heavy precipitations  Wind > 20 kt
SIGMETs :     Misc.  Thunderstorms  Icing  Turbulence  Mountain Waves  Volcanic Ashes







- Airport Elevation : 2001 ft
- IATA code : MAD


LEMD - Madrid

CURRENT METAR :
  • 171200Z 20006G17KT CAVOK 30/02 Q1017 NOSIG

EXPIRED METARs :
  • 171130Z VRB05G18KT CAVOK 29/02 Q1017 NOSIG
  • 171100Z 15006KT 100V190 CAVOK 28/02 Q1018 NOSIG
  • 171030Z VRB04KT CAVOK 27/04 Q1018 NOSIG
  • 171000Z 19003KT CAVOK 25/06 Q1018 NOSIG
  • 170930Z 17003KT 110V240 CAVOK 24/06 Q1018 NOSIG

TAF TAF LEMD
Valid from the 17 at 12:00 until the 18 at 18:00 UTC


171100Z 1712/1818 VRB05KT CAVOK TX33/1716Z TN16/1805Z
TEMPO 1712/1718 21010KT
PROB30
TEMPO 1712/1719 22008G18KT
TEMPO 1719/1722 28007KT
BECMG 1807/1808 22012KT
TEMPO 1812/1818 22015G28KT
No reported NOTAMs for that airfield.



MET'MAP, your aeronautical weather chart ! - Copyright ORBIFLY December 2007 - Disclaimer

ORBIFLY MET'MAP TEAM :

Programming & Development : Alexandra Zaïnal
Concept & Development : Baudouin d'Aumeries
Co-Development & Prog : Marc-Olivier Méhu
Technical & hardware support : Manuel Goepfert

Contact : metmap@orbifly.com




SOURCES & CREDITS :

   NOAA